首页
METAR-TAF:

METAR-TAF

机场 :

塔那那利佛/伊瓦图国际机场

塔那那利佛, 马达加斯加

纬度: 18-48S, 经度: 047-29E, 海拔: 1279米

当前天气观测

该预报发布于25分钟前的08:00 UTC
风速5节,风向,在南转西南之间变化
温度 20°C
湿度 46%
气压 1024 hPa
能见度10公里或以上
少量云层高于2000英尺

METAR: FMMI 230800Z 17005KT 090V210 9999 FEW020 20/08 Q1024 NOSIG

时间: 11:25 (08:25 UTC)

预报

该预报发布于3小时和25分钟前的05:00 UTC
预报有效从23日的 06点(UTC)到 24日的 12点(UTC)
风速7节,风向东转东南
能见度10公里或以上
少量云层高于2000英尺
几率 30%
从 24日的 02点(UTC)到 24日的 05点(UTC)
能見度: 1500
多云层高于600英尺
轻雾

TAF: FMMI 230500Z 2306/2412 12007KT 9999 FEW020 PROB30 2402/2405 1500 BR BKN006

超过4000个机场的气象观测和天气预报(METAR&TAF报告)。

可查询的气象台以黄色和红色小点在地图上表示。

将鼠标移到小点上方,可查看气象台名称。

然后点击查看天气观测和预报。

如需切换地图:点击带黑十字的绿色按钮放大地图;点击带横线的绿色按钮缩小地图;或者点击绿色箭头查看邻近地区的地图。


METAR-TAF: